sensor_id;sensor_type;location;lat;lon;timestamp;temperature;humidity
78731;SHT31;68055;51.978;5.658;2023-04-03T00:02:21;7.3;53.2
78731;SHT31;68055;51.978;5.658;2023-04-03T00:04:51;7.3;53.4
78731;SHT31;68055;51.978;5.658;2023-04-03T00:07:21;7.3;53.5
78731;SHT31;68055;51.978;5.658;2023-04-03T00:09:51;7.3;53.3
78731;SHT31;68055;51.978;5.658;2023-04-03T00:12:20;7.2;53.3
78731;SHT31;68055;51.978;5.658;2023-04-03T00:14:50;7.2;53.5
78731;SHT31;68055;51.978;5.658;2023-04-03T00:17:19;7.2;53.7
78731;SHT31;68055;51.978;5.658;2023-04-03T00:19:49;7.2;53.4
78731;SHT31;68055;51.978;5.658;2023-04-03T00:22:18;7.2;53.4
78731;SHT31;68055;51.978;5.658;2023-04-03T00:24:48;7.2;53.2
78731;SHT31;68055;51.978;5.658;2023-04-03T00:27:17;7.1;53.2
78731;SHT31;68055;51.978;5.658;2023-04-03T00:29:47;7.1;53.4
78731;SHT31;68055;51.978;5.658;2023-04-03T00:32:17;7.1;53.3
78731;SHT31;68055;51.978;5.658;2023-04-03T00:34:46;7.1;53.3
78731;SHT31;68055;51.978;5.658;2023-04-03T00:37:16;7.0;53.5
78731;SHT31;68055;51.978;5.658;2023-04-03T00:39:45;7.0;53.5
78731;SHT31;68055;51.978;5.658;2023-04-03T00:42:15;7.0;53.5
78731;SHT31;68055;51.978;5.658;2023-04-03T00:45:25;6.9;53.7
78731;SHT31;68055;51.978;5.658;2023-04-03T00:47:56;6.9;53.6
78731;SHT31;68055;51.978;5.658;2023-04-03T00:50:28;6.9;53.7
78731;SHT31;68055;51.978;5.658;2023-04-03T00:52:59;6.9;53.5
78731;SHT31;68055;51.978;5.658;2023-04-03T00:55:29;6.8;53.7
78731;SHT31;68055;51.978;5.658;2023-04-03T00:58:00;6.8;53.7
78731;SHT31;68055;51.978;5.658;2023-04-03T01:00:30;6.8;54.0
78731;SHT31;68055;51.978;5.658;2023-04-03T01:03:00;6.8;54.0
78731;SHT31;68055;51.978;5.658;2023-04-03T01:05:30;6.8;54.1
78731;SHT31;68055;51.978;5.658;2023-04-03T01:08:00;6.7;53.9
78731;SHT31;68055;51.978;5.658;2023-04-03T01:10:30;6.7;54.2
78731;SHT31;68055;51.978;5.658;2023-04-03T01:13:02;6.7;54.3
78731;SHT31;68055;51.978;5.658;2023-04-03T01:15:36;6.7;54.2
78731;SHT31;68055;51.978;5.658;2023-04-03T01:18:10;6.7;54.4
78731;SHT31;68055;51.978;5.658;2023-04-03T01:21:23;6.7;54.5
78731;SHT31;68055;51.978;5.658;2023-04-03T01:24:08;6.7;54.5
78731;SHT31;68055;51.978;5.658;2023-04-03T01:26:41;6.6;54.7
78731;SHT31;68055;51.978;5.658;2023-04-03T01:29:11;6.6;54.7
78731;SHT31;68055;51.978;5.658;2023-04-03T01:31:48;6.6;54.6
78731;SHT31;68055;51.978;5.658;2023-04-03T01:34:19;6.6;54.7
78731;SHT31;68055;51.978;5.658;2023-04-03T01:36:49;6.6;54.7
78731;SHT31;68055;51.978;5.658;2023-04-03T01:39:20;6.6;54.7
78731;SHT31;68055;51.978;5.658;2023-04-03T01:41:50;6.6;54.8
78731;SHT31;68055;51.978;5.658;2023-04-03T01:44:20;6.5;54.8
78731;SHT31;68055;51.978;5.658;2023-04-03T01:46:50;6.5;55.1
78731;SHT31;68055;51.978;5.658;2023-04-03T01:49:20;6.5;55.3
78731;SHT31;68055;51.978;5.658;2023-04-03T01:51:49;6.5;55.5
78731;SHT31;68055;51.978;5.658;2023-04-03T01:54:19;6.5;55.4
78731;SHT31;68055;51.978;5.658;2023-04-03T01:56:49;6.4;55.5
78731;SHT31;68055;51.978;5.658;2023-04-03T01:59:18;6.4;55.7
78731;SHT31;68055;51.978;5.658;2023-04-03T02:01:48;6.4;55.7
78731;SHT31;68055;51.978;5.658;2023-04-03T02:04:18;6.4;55.6
78731;SHT31;68055;51.978;5.658;2023-04-03T02:06:47;6.4;56.0
78731;SHT31;68055;51.978;5.658;2023-04-03T02:09:17;6.4;56.0
78731;SHT31;68055;51.978;5.658;2023-04-03T02:11:46;6.4;56.3
78731;SHT31;68055;51.978;5.658;2023-04-03T02:14:16;6.4;56.4
78731;SHT31;68055;51.978;5.658;2023-04-03T02:16:46;6.3;56.4
78731;SHT31;68055;51.978;5.658;2023-04-03T02:19:16;6.3;56.6
78731;SHT31;68055;51.978;5.658;2023-04-03T02:21:45;6.3;56.6
78731;SHT31;68055;51.978;5.658;2023-04-03T02:24:15;6.3;56.5
78731;SHT31;68055;51.978;5.658;2023-04-03T02:26:44;6.3;56.6
78731;SHT31;68055;51.978;5.658;2023-04-03T02:29:14;6.3;56.7
78731;SHT31;68055;51.978;5.658;2023-04-03T02:31:44;6.3;56.9
78731;SHT31;68055;51.978;5.658;2023-04-03T02:34:14;6.3;57.0
78731;SHT31;68055;51.978;5.658;2023-04-03T02:36:43;6.3;57.1
78731;SHT31;68055;51.978;5.658;2023-04-03T02:39:13;6.3;57.3
78731;SHT31;68055;51.978;5.658;2023-04-03T02:41:43;6.3;57.2
78731;SHT31;68055;51.978;5.658;2023-04-03T02:44:14;6.3;57.2
78731;SHT31;68055;51.978;5.658;2023-04-03T02:46:43;6.3;57.3
78731;SHT31;68055;51.978;5.658;2023-04-03T02:49:13;6.3;57.1
78731;SHT31;68055;51.978;5.658;2023-04-03T02:51:43;6.3;57.2
78731;SHT31;68055;51.978;5.658;2023-04-03T02:54:13;6.3;57.3
78731;SHT31;68055;51.978;5.658;2023-04-03T02:56:43;6.3;57.3
78731;SHT31;68055;51.978;5.658;2023-04-03T02:59:13;6.3;57.3
78731;SHT31;68055;51.978;5.658;2023-04-03T03:01:43;6.3;57.4
78731;SHT31;68055;51.978;5.658;2023-04-03T03:04:12;6.3;57.5
78731;SHT31;68055;51.978;5.658;2023-04-03T03:06:42;6.2;57.5
78731;SHT31;68055;51.978;5.658;2023-04-03T03:09:11;6.2;57.5
78731;SHT31;68055;51.978;5.658;2023-04-03T03:11:42;6.2;57.7
78731;SHT31;68055;51.978;5.658;2023-04-03T03:14:12;6.2;57.6
78731;SHT31;68055;51.978;5.658;2023-04-03T03:16:42;6.2;57.5
78731;SHT31;68055;51.978;5.658;2023-04-03T03:19:11;6.2;57.6
78731;SHT31;68055;51.978;5.658;2023-04-03T03:21:41;6.2;57.8
78731;SHT31;68055;51.978;5.658;2023-04-03T03:24:11;6.2;57.8
78731;SHT31;68055;51.978;5.658;2023-04-03T03:26:43;6.2;57.8
78731;SHT31;68055;51.978;5.658;2023-04-03T03:29:12;6.2;57.8
78731;SHT31;68055;51.978;5.658;2023-04-03T03:31:44;6.2;57.9
78731;SHT31;68055;51.978;5.658;2023-04-03T03:34:13;6.2;58.0
78731;SHT31;68055;51.978;5.658;2023-04-03T03:36:43;6.2;58.1
78731;SHT31;68055;51.978;5.658;2023-04-03T03:39:15;6.1;58.1
78731;SHT31;68055;51.978;5.658;2023-04-03T03:41:44;6.1;58.2
78731;SHT31;68055;51.978;5.658;2023-04-03T03:44:16;6.1;58.2
78731;SHT31;68055;51.978;5.658;2023-04-03T03:46:46;6.1;58.3
78731;SHT31;68055;51.978;5.658;2023-04-03T03:49:15;6.1;58.3
78731;SHT31;68055;51.978;5.658;2023-04-03T03:51:45;6.1;58.6
78731;SHT31;68055;51.978;5.658;2023-04-03T03:54:15;6.0;58.5
78731;SHT31;68055;51.978;5.658;2023-04-03T03:56:44;6.0;58.6
78731;SHT31;68055;51.978;5.658;2023-04-03T03:59:14;6.0;58.4
78731;SHT31;68055;51.978;5.658;2023-04-03T04:01:43;6.0;58.4
78731;SHT31;68055;51.978;5.658;2023-04-03T04:04:13;6.0;58.5
78731;SHT31;68055;51.978;5.658;2023-04-03T04:06:43;5.9;58.6
78731;SHT31;68055;51.978;5.658;2023-04-03T04:09:12;5.9;58.7
78731;SHT31;68055;51.978;5.658;2023-04-03T04:11:42;5.9;58.8
78731;SHT31;68055;51.978;5.658;2023-04-03T04:14:12;5.9;58.9
78731;SHT31;68055;51.978;5.658;2023-04-03T04:16:42;5.8;59.0
78731;SHT31;68055;51.978;5.658;2023-04-03T04:19:12;5.8;59.2
78731;SHT31;68055;51.978;5.658;2023-04-03T04:21:42;5.8;59.2
78731;SHT31;68055;51.978;5.658;2023-04-03T04:24:11;5.8;59.1
78731;SHT31;68055;51.978;5.658;2023-04-03T04:26:41;5.8;59.2
78731;SHT31;68055;51.978;5.658;2023-04-03T04:29:11;5.8;59.2
78731;SHT31;68055;51.978;5.658;2023-04-03T04:31:40;5.7;59.3
78731;SHT31;68055;51.978;5.658;2023-04-03T04:34:10;5.7;59.5
78731;SHT31;68055;51.978;5.658;2023-04-03T04:36:40;5.7;59.4
78731;SHT31;68055;51.978;5.658;2023-04-03T04:39:12;5.7;59.3
78731;SHT31;68055;51.978;5.658;2023-04-03T04:41:43;5.7;59.6
78731;SHT31;68055;51.978;5.658;2023-04-03T04:44:13;5.7;59.5
78731;SHT31;68055;51.978;5.658;2023-04-03T04:46:43;5.7;59.7
78731;SHT31;68055;51.978;5.658;2023-04-03T04:49:13;5.6;59.6
78731;SHT31;68055;51.978;5.658;2023-04-03T04:51:42;5.6;59.7
78731;SHT31;68055;51.978;5.658;2023-04-03T04:54:12;5.6;59.5
78731;SHT31;68055;51.978;5.658;2023-04-03T04:56:42;5.6;59.6
78731;SHT31;68055;51.978;5.658;2023-04-03T04:59:12;5.5;59.7
78731;SHT31;68055;51.978;5.658;2023-04-03T05:01:42;5.5;59.9
78731;SHT31;68055;51.978;5.658;2023-04-03T05:04:13;5.4;60.1
78731;SHT31;68055;51.978;5.658;2023-04-03T05:06:45;5.4;60.1
78731;SHT31;68055;51.978;5.658;2023-04-03T05:09:15;5.4;60.1
78731;SHT31;68055;51.978;5.658;2023-04-03T05:11:47;5.3;60.4
78731;SHT31;68055;51.978;5.658;2023-04-03T05:14:17;5.3;60.4
78731;SHT31;68055;51.978;5.658;2023-04-03T05:16:46;5.3;60.5
78731;SHT31;68055;51.978;5.658;2023-04-03T05:19:21;5.3;60.4
78731;SHT31;68055;51.978;5.658;2023-04-03T05:21:50;5.2;60.8
78731;SHT31;68055;51.978;5.658;2023-04-03T05:24:20;5.2;60.6
78731;SHT31;68055;51.978;5.658;2023-04-03T05:26:49;5.2;60.7
78731;SHT31;68055;51.978;5.658;2023-04-03T05:29:21;5.2;60.6
78731;SHT31;68055;51.978;5.658;2023-04-03T05:31:50;5.2;60.7
78731;SHT31;68055;51.978;5.658;2023-04-03T05:34:20;5.1;60.6
78731;SHT31;68055;51.978;5.658;2023-04-03T05:36:50;5.1;60.7
78731;SHT31;68055;51.978;5.658;2023-04-03T05:39:19;5.1;60.7
78731;SHT31;68055;51.978;5.658;2023-04-03T05:41:50;5.1;60.8
78731;SHT31;68055;51.978;5.658;2023-04-03T05:44:19;5.1;60.9
78731;SHT31;68055;51.978;5.658;2023-04-03T05:46:49;5.1;61.0
78731;SHT31;68055;51.978;5.658;2023-04-03T05:49:18;5.1;61.0
78731;SHT31;68055;51.978;5.658;2023-04-03T05:51:48;5.1;61.0
78731;SHT31;68055;51.978;5.658;2023-04-03T05:54:23;5.1;60.9
78731;SHT31;68055;51.978;5.658;2023-04-03T05:56:53;5.1;60.9
78731;SHT31;68055;51.978;5.658;2023-04-03T05:59:22;5.1;61.0
78731;SHT31;68055;51.978;5.658;2023-04-03T06:01:52;5.1;60.9
78731;SHT31;68055;51.978;5.658;2023-04-03T06:04:22;5.1;60.8
78731;SHT31;68055;51.978;5.658;2023-04-03T06:06:53;5.1;60.7
78731;SHT31;68055;51.978;5.658;2023-04-03T06:09:26;5.1;60.9
78731;SHT31;68055;51.978;5.658;2023-04-03T06:11:58;5.1;60.8
78731;SHT31;68055;51.978;5.658;2023-04-03T06:14:29;5.1;60.8
78731;SHT31;68055;51.978;5.658;2023-04-03T06:16:58;5.1;60.7
78731;SHT31;68055;51.978;5.658;2023-04-03T06:19:29;5.1;60.7
78731;SHT31;68055;51.978;5.658;2023-04-03T06:22:00;5.1;60.6
78731;SHT31;68055;51.978;5.658;2023-04-03T06:24:30;5.1;60.7
78731;SHT31;68055;51.978;5.658;2023-04-03T06:27:00;5.1;60.7
78731;SHT31;68055;51.978;5.658;2023-04-03T06:29:30;5.1;60.4
78731;SHT31;68055;51.978;5.658;2023-04-03T06:32:00;5.1;60.4
78731;SHT31;68055;51.978;5.658;2023-04-03T06:34:29;5.1;60.4
78731;SHT31;68055;51.978;5.658;2023-04-03T06:36:59;5.1;60.3
78731;SHT31;68055;51.978;5.658;2023-04-03T06:39:29;5.2;60.4
78731;SHT31;68055;51.978;5.658;2023-04-03T06:41:58;5.2;60.5
78731;SHT31;68055;51.978;5.658;2023-04-03T06:44:28;5.3;60.0
78731;SHT31;68055;51.978;5.658;2023-04-03T06:47:00;5.3;59.9
78731;SHT31;68055;51.978;5.658;2023-04-03T06:49:30;5.4;60.1
78731;SHT31;68055;51.978;5.658;2023-04-03T06:52:00;5.5;59.6
78731;SHT31;68055;51.978;5.658;2023-04-03T06:54:30;5.7;58.8
78731;SHT31;68055;51.978;5.658;2023-04-03T06:57:00;5.8;58.6
78731;SHT31;68055;51.978;5.658;2023-04-03T06:59:29;5.9;58.5
78731;SHT31;68055;51.978;5.658;2023-04-03T07:01:59;6.1;57.4
78731;SHT31;68055;51.978;5.658;2023-04-03T07:04:29;6.2;57.0
78731;SHT31;68055;51.978;5.658;2023-04-03T07:06:59;6.4;56.8
78731;SHT31;68055;51.978;5.658;2023-04-03T07:09:28;6.5;56.0
78731;SHT31;68055;51.978;5.658;2023-04-03T07:11:58;6.7;55.3
78731;SHT31;68055;51.978;5.658;2023-04-03T07:14:28;6.8;54.7
78731;SHT31;68055;51.978;5.658;2023-04-03T07:16:57;7.0;54.2
78731;SHT31;68055;51.978;5.658;2023-04-03T07:19:27;7.1;54.7
78731;SHT31;68055;51.978;5.658;2023-04-03T07:21:57;7.3;53.7
78731;SHT31;68055;51.978;5.658;2023-04-03T07:24:27;7.4;53.2
78731;SHT31;68055;51.978;5.658;2023-04-03T07:26:57;7.6;53.0
78731;SHT31;68055;51.978;5.658;2023-04-03T07:29:27;7.8;52.3
78731;SHT31;68055;51.978;5.658;2023-04-03T07:31:57;8.0;51.6
78731;SHT31;68055;51.978;5.658;2023-04-03T07:34:27;8.2;50.4
78731;SHT31;68055;51.978;5.658;2023-04-03T07:37:00;8.5;49.0
78731;SHT31;68055;51.978;5.658;2023-04-03T07:39:30;8.8;47.8
78731;SHT31;68055;51.978;5.658;2023-04-03T07:42:00;8.9;49.1
78731;SHT31;68055;51.978;5.658;2023-04-03T07:44:30;9.0;48.3
78731;SHT31;68055;51.978;5.658;2023-04-03T07:47:00;9.1;46.6
78731;SHT31;68055;51.978;5.658;2023-04-03T07:49:30;9.2;46.0
78731;SHT31;68055;51.978;5.658;2023-04-03T07:52:00;9.3;46.5
78731;SHT31;68055;51.978;5.658;2023-04-03T07:54:32;9.3;45.8
78731;SHT31;68055;51.978;5.658;2023-04-03T07:57:03;9.4;45.9
78731;SHT31;68055;51.978;5.658;2023-04-03T07:59:33;9.5;45.9
78731;SHT31;68055;51.978;5.658;2023-04-03T08:02:03;9.6;45.3
78731;SHT31;68055;51.978;5.658;2023-04-03T08:04:33;9.7;42.7
78731;SHT31;68055;51.978;5.658;2023-04-03T08:07:03;9.8;42.5
78731;SHT31;68055;51.978;5.658;2023-04-03T08:09:35;9.9;42.4
78731;SHT31;68055;51.978;5.658;2023-04-03T08:12:05;9.9;41.2
78731;SHT31;68055;51.978;5.658;2023-04-03T08:14:34;10.0;41.0
78731;SHT31;68055;51.978;5.658;2023-04-03T08:17:04;10.1;39.6
78731;SHT31;68055;51.978;5.658;2023-04-03T08:19:37;10.2;40.2
78731;SHT31;68055;51.978;5.658;2023-04-03T08:22:07;10.2;38.0
78731;SHT31;68055;51.978;5.658;2023-04-03T08:24:37;10.3;37.9
78731;SHT31;68055;51.978;5.658;2023-04-03T08:27:09;10.4;37.8
78731;SHT31;68055;51.978;5.658;2023-04-03T08:29:38;10.6;38.7
78731;SHT31;68055;51.978;5.658;2023-04-03T08:32:08;10.7;38.0
78731;SHT31;68055;51.978;5.658;2023-04-03T08:34:38;10.8;36.5
78731;SHT31;68055;51.978;5.658;2023-04-03T08:37:10;11.0;34.5
78731;SHT31;68055;51.978;5.658;2023-04-03T08:39:40;11.1;33.2
78731;SHT31;68055;51.978;5.658;2023-04-03T08:42:16;11.2;32.3
78731;SHT31;68055;51.978;5.658;2023-04-03T08:44:55;11.4;32.6
78731;SHT31;68055;51.978;5.658;2023-04-03T08:47:33;11.5;31.6
78731;SHT31;68055;51.978;5.658;2023-04-03T08:50:10;11.6;31.0
78731;SHT31;68055;51.978;5.658;2023-04-03T08:52:44;11.7;30.1
78731;SHT31;68055;51.978;5.658;2023-04-03T08:55:25;11.8;30.7
78731;SHT31;68055;51.978;5.658;2023-04-03T08:58:00;12.0;30.0
78731;SHT31;68055;51.978;5.658;2023-04-03T09:00:40;12.1;26.5
78731;SHT31;68055;51.978;5.658;2023-04-03T09:03:14;12.3;27.1
78731;SHT31;68055;51.978;5.658;2023-04-03T09:05:49;12.4;26.4
78731;SHT31;68055;51.978;5.658;2023-04-03T09:08:22;12.6;27.5
78731;SHT31;68055;51.978;5.658;2023-04-03T09:11:04;12.8;25.0
78731;SHT31;68055;51.978;5.658;2023-04-03T09:13:45;12.9;24.1
78731;SHT31;68055;51.978;5.658;2023-04-03T09:16:25;13.1;23.6
78731;SHT31;68055;51.978;5.658;2023-04-03T09:19:05;13.2;22.9
78731;SHT31;68055;51.978;5.658;2023-04-03T09:21:39;13.4;23.4
78731;SHT31;68055;51.978;5.658;2023-04-03T09:24:12;13.5;22.2
78731;SHT31;68055;51.978;5.658;2023-04-03T09:26:48;13.6;22.3
78731;SHT31;68055;51.978;5.658;2023-04-03T09:29:22;13.7;20.8
78731;SHT31;68055;51.978;5.658;2023-04-03T09:31:56;13.8;20.9
78731;SHT31;68055;51.978;5.658;2023-04-03T09:34:30;13.9;20.4
78731;SHT31;68055;51.978;5.658;2023-04-03T09:37:02;14.0;19.5
78731;SHT31;68055;51.978;5.658;2023-04-03T09:39:50;14.1;20.1
78731;SHT31;68055;51.978;5.658;2023-04-03T09:42:23;14.1;20.9
78731;SHT31;68055;51.978;5.658;2023-04-03T09:44:56;14.2;20.8
78731;SHT31;68055;51.978;5.658;2023-04-03T09:47:29;14.3;20.5
78731;SHT31;68055;51.978;5.658;2023-04-03T09:50:20;14.4;20.4
78731;SHT31;68055;51.978;5.658;2023-04-03T09:52:51;14.5;21.3
78731;SHT31;68055;51.978;5.658;2023-04-03T09:55:23;14.6;20.0
78731;SHT31;68055;51.978;5.658;2023-04-03T09:57:55;14.8;20.7
78731;SHT31;68055;51.978;5.658;2023-04-03T10:00:30;14.9;19.7
78731;SHT31;68055;51.978;5.658;2023-04-03T10:03:01;15.0;19.7
78731;SHT31;68055;51.978;5.658;2023-04-03T10:05:34;15.1;20.1
78731;SHT31;68055;51.978;5.658;2023-04-03T10:08:23;15.0;20.4
78731;SHT31;68055;51.978;5.658;2023-04-03T10:11:11;14.9;20.6
78731;SHT31;68055;51.978;5.658;2023-04-03T10:13:52;14.6;20.8
78731;SHT31;68055;51.978;5.658;2023-04-03T10:16:26;14.4;21.3
78731;SHT31;68055;51.978;5.658;2023-04-03T10:19:11;14.2;20.3
78731;SHT31;68055;51.978;5.658;2023-04-03T10:21:49;14.0;21.2
78731;SHT31;68055;51.978;5.658;2023-04-03T10:24:25;13.8;21.8
78731;SHT31;68055;51.978;5.658;2023-04-03T10:27:03;13.6;21.5
78731;SHT31;68055;51.978;5.658;2023-04-03T10:29:45;13.5;21.2
78731;SHT31;68055;51.978;5.658;2023-04-03T10:32:31;13.3;21.9
78731;SHT31;68055;51.978;5.658;2023-04-03T10:35:11;13.2;22.5
78731;SHT31;68055;51.978;5.658;2023-04-03T10:38:01;13.1;22.4
78731;SHT31;68055;51.978;5.658;2023-04-03T10:40:38;13.0;23.9
78731;SHT31;68055;51.978;5.658;2023-04-03T10:43:21;12.9;23.5
78731;SHT31;68055;51.978;5.658;2023-04-03T10:45:59;12.8;23.5
78731;SHT31;68055;51.978;5.658;2023-04-03T10:48:43;12.7;24.8
78731;SHT31;68055;51.978;5.658;2023-04-03T10:51:29;12.6;24.7
78731;SHT31;68055;51.978;5.658;2023-04-03T10:54:05;12.6;25.6
78731;SHT31;68055;51.978;5.658;2023-04-03T10:56:40;12.5;25.2
78731;SHT31;68055;51.978;5.658;2023-04-03T10:59:19;12.4;26.0
78731;SHT31;68055;51.978;5.658;2023-04-03T11:01:54;12.4;26.1
78731;SHT31;68055;51.978;5.658;2023-04-03T11:04:28;12.3;26.2
78731;SHT31;68055;51.978;5.658;2023-04-03T11:07:02;12.3;26.2
78731;SHT31;68055;51.978;5.658;2023-04-03T11:09:37;12.2;26.1
78731;SHT31;68055;51.978;5.658;2023-04-03T11:12:14;12.2;26.2
78731;SHT31;68055;51.978;5.658;2023-04-03T11:14:50;12.1;26.5
78731;SHT31;68055;51.978;5.658;2023-04-03T11:17:28;12.1;26.8
78731;SHT31;68055;51.978;5.658;2023-04-03T11:20:05;12.1;26.6
78731;SHT31;68055;51.978;5.658;2023-04-03T11:22:41;12.1;27.0
78731;SHT31;68055;51.978;5.658;2023-04-03T11:25:20;12.1;27.6
78731;SHT31;68055;51.978;5.658;2023-04-03T11:27:55;12.1;26.4
78731;SHT31;68055;51.978;5.658;2023-04-03T11:30:30;12.0;26.1
78731;SHT31;68055;51.978;5.658;2023-04-03T11:33:24;12.0;27.5
78731;SHT31;68055;51.978;5.658;2023-04-03T11:36:02;12.0;26.5
78731;SHT31;68055;51.978;5.658;2023-04-03T11:38:37;11.9;27.5
78731;SHT31;68055;51.978;5.658;2023-04-03T11:41:10;11.9;26.7
78731;SHT31;68055;51.978;5.658;2023-04-03T11:43:43;11.9;27.8
78731;SHT31;68055;51.978;5.658;2023-04-03T11:46:17;11.9;27.2
78731;SHT31;68055;51.978;5.658;2023-04-03T11:48:51;11.9;27.3
78731;SHT31;68055;51.978;5.658;2023-04-03T11:53:39;11.9;27.6
78731;SHT31;68055;51.978;5.658;2023-04-03T11:56:31;11.9;26.6
78731;SHT31;68055;51.978;5.658;2023-04-03T11:59:25;11.9;25.5
78731;SHT31;68055;51.978;5.658;2023-04-03T12:01:57;11.9;26.4
78731;SHT31;68055;51.978;5.658;2023-04-03T12:04:27;11.9;26.5
78731;SHT31;68055;51.978;5.658;2023-04-03T12:08:21;11.9;26.9
78731;SHT31;68055;51.978;5.658;2023-04-03T12:11:25;11.9;26.7
78731;SHT31;68055;51.978;5.658;2023-04-03T12:14:05;11.9;26.8
78731;SHT31;68055;51.978;5.658;2023-04-03T12:16:45;11.9;26.9
78731;SHT31;68055;51.978;5.658;2023-04-03T12:19:38;11.9;27.0
78731;SHT31;68055;51.978;5.658;2023-04-03T12:22:16;11.9;27.8
78731;SHT31;68055;51.978;5.658;2023-04-03T12:24:50;11.9;27.6
78731;SHT31;68055;51.978;5.658;2023-04-03T12:27:24;11.9;28.4
78731;SHT31;68055;51.978;5.658;2023-04-03T12:29:59;11.9;27.0
78731;SHT31;68055;51.978;5.658;2023-04-03T12:32:51;11.9;27.6
78731;SHT31;68055;51.978;5.658;2023-04-03T12:35:29;11.9;27.0
78731;SHT31;68055;51.978;5.658;2023-04-03T12:38:30;11.9;27.6
78731;SHT31;68055;51.978;5.658;2023-04-03T12:41:19;11.9;28.3
78731;SHT31;68055;51.978;5.658;2023-04-03T12:44:04;11.9;26.9
78731;SHT31;68055;51.978;5.658;2023-04-03T12:46:40;12.0;27.8
78731;SHT31;68055;51.978;5.658;2023-04-03T12:49:30;12.0;28.1
78731;SHT31;68055;51.978;5.658;2023-04-03T12:52:03;12.0;28.9
78731;SHT31;68055;51.978;5.658;2023-04-03T12:54:36;12.0;28.6
78731;SHT31;68055;51.978;5.658;2023-04-03T12:57:11;12.0;29.0
78731;SHT31;68055;51.978;5.658;2023-04-03T12:59:42;12.0;28.8
78731;SHT31;68055;51.978;5.658;2023-04-03T13:02:21;12.0;28.6
78731;SHT31;68055;51.978;5.658;2023-04-03T13:04:54;12.0;28.7
78731;SHT31;68055;51.978;5.658;2023-04-03T13:07:29;12.0;28.8
78731;SHT31;68055;51.978;5.658;2023-04-03T13:10:03;12.0;28.0
78731;SHT31;68055;51.978;5.658;2023-04-03T13:12:34;12.0;28.4
78731;SHT31;68055;51.978;5.658;2023-04-03T13:15:14;12.1;27.6
78731;SHT31;68055;51.978;5.658;2023-04-03T13:17:45;12.1;27.7
78731;SHT31;68055;51.978;5.658;2023-04-03T13:20:20;12.0;26.7
78731;SHT31;68055;51.978;5.658;2023-04-03T13:22:54;12.0;27.6
78731;SHT31;68055;51.978;5.658;2023-04-03T13:25:28;12.0;28.1
78731;SHT31;68055;51.978;5.658;2023-04-03T13:28:01;12.0;28.3
78731;SHT31;68055;51.978;5.658;2023-04-03T13:30:34;12.0;28.8
78731;SHT31;68055;51.978;5.658;2023-04-03T13:33:17;12.0;28.3
78731;SHT31;68055;51.978;5.658;2023-04-03T13:35:41;12.0;27.8
78731;SHT31;68055;51.978;5.658;2023-04-03T13:38:25;12.0;29.0
78731;SHT31;68055;51.978;5.658;2023-04-03T13:41:00;12.0;28.7
78731;SHT31;68055;51.978;5.658;2023-04-03T13:43:34;12.1;29.6
78731;SHT31;68055;51.978;5.658;2023-04-03T13:46:34;12.1;29.0
78731;SHT31;68055;51.978;5.658;2023-04-03T13:49:19;12.1;29.5
78731;SHT31;68055;51.978;5.658;2023-04-03T13:51:49;12.1;28.7
78731;SHT31;68055;51.978;5.658;2023-04-03T13:54:22;12.1;28.6
78731;SHT31;68055;51.978;5.658;2023-04-03T13:56:56;12.1;28.0
78731;SHT31;68055;51.978;5.658;2023-04-03T13:59:29;12.1;28.8
78731;SHT31;68055;51.978;5.658;2023-04-03T14:02:14;12.1;29.6
78731;SHT31;68055;51.978;5.658;2023-04-03T14:04:52;12.1;28.6
78731;SHT31;68055;51.978;5.658;2023-04-03T14:07:26;12.1;28.5
78731;SHT31;68055;51.978;5.658;2023-04-03T14:09:59;12.1;29.7
78731;SHT31;68055;51.978;5.658;2023-04-03T14:12:32;12.1;29.6
78731;SHT31;68055;51.978;5.658;2023-04-03T14:15:06;12.1;29.4
78731;SHT31;68055;51.978;5.658;2023-04-03T14:17:39;12.1;28.6
78731;SHT31;68055;51.978;5.658;2023-04-03T14:20:15;12.1;28.9
78731;SHT31;68055;51.978;5.658;2023-04-03T14:22:44;12.1;28.9
78731;SHT31;68055;51.978;5.658;2023-04-03T14:25:14;12.1;29.5
78731;SHT31;68055;51.978;5.658;2023-04-03T14:27:47;12.1;29.5
78731;SHT31;68055;51.978;5.658;2023-04-03T14:30:20;12.1;29.7
78731;SHT31;68055;51.978;5.658;2023-04-03T14:32:51;12.1;30.2
78731;SHT31;68055;51.978;5.658;2023-04-03T14:35:21;12.1;30.2
78731;SHT31;68055;51.978;5.658;2023-04-03T14:37:51;12.1;30.4
78731;SHT31;68055;51.978;5.658;2023-04-03T14:40:24;12.1;29.9
78731;SHT31;68055;51.978;5.658;2023-04-03T14:42:54;12.1;29.8
78731;SHT31;68055;51.978;5.658;2023-04-03T14:45:24;12.1;30.1
78731;SHT31;68055;51.978;5.658;2023-04-03T14:47:55;12.1;30.8
78731;SHT31;68055;51.978;5.658;2023-04-03T14:50:27;12.1;31.1
78731;SHT31;68055;51.978;5.658;2023-04-03T14:52:58;12.1;30.7
78731;SHT31;68055;51.978;5.658;2023-04-03T14:55:29;12.1;31.2
78731;SHT31;68055;51.978;5.658;2023-04-03T14:57:59;12.2;30.0
78731;SHT31;68055;51.978;5.658;2023-04-03T15:00:29;12.2;30.1
78731;SHT31;68055;51.978;5.658;2023-04-03T15:02:59;12.1;30.1
78731;SHT31;68055;51.978;5.658;2023-04-03T15:05:29;12.1;30.4
78731;SHT31;68055;51.978;5.658;2023-04-03T15:07:58;12.1;30.8
78731;SHT31;68055;51.978;5.658;2023-04-03T15:10:29;12.1;30.7
78731;SHT31;68055;51.978;5.658;2023-04-03T15:13:00;12.1;32.0
78731;SHT31;68055;51.978;5.658;2023-04-03T15:15:31;12.2;31.2
78731;SHT31;68055;51.978;5.658;2023-04-03T15:18:00;12.2;31.5
78731;SHT31;68055;51.978;5.658;2023-04-03T15:20:30;12.2;31.6
78731;SHT31;68055;51.978;5.658;2023-04-03T15:23:01;12.2;31.2
78731;SHT31;68055;51.978;5.658;2023-04-03T15:25:32;12.2;30.9
78731;SHT31;68055;51.978;5.658;2023-04-03T15:28:02;12.1;31.3
78731;SHT31;68055;51.978;5.658;2023-04-03T15:30:32;12.1;32.0
78731;SHT31;68055;51.978;5.658;2023-04-03T15:33:01;12.1;31.9
78731;SHT31;68055;51.978;5.658;2023-04-03T15:35:31;12.1;32.3
78731;SHT31;68055;51.978;5.658;2023-04-03T15:38:01;12.1;31.8
78731;SHT31;68055;51.978;5.658;2023-04-03T15:40:30;12.1;31.5
78731;SHT31;68055;51.978;5.658;2023-04-03T15:43:00;12.0;32.1
78731;SHT31;68055;51.978;5.658;2023-04-03T15:45:31;12.0;32.0
78731;SHT31;68055;51.978;5.658;2023-04-03T15:48:01;12.0;31.3
78731;SHT31;68055;51.978;5.658;2023-04-03T15:50:32;12.0;31.3
78731;SHT31;68055;51.978;5.658;2023-04-03T15:53:02;11.9;31.3
78731;SHT31;68055;51.978;5.658;2023-04-03T15:55:35;11.9;31.6
78731;SHT31;68055;51.978;5.658;2023-04-03T15:58:05;11.9;32.2
78731;SHT31;68055;51.978;5.658;2023-04-03T16:00:36;11.9;32.1
78731;SHT31;68055;51.978;5.658;2023-04-03T16:03:09;11.9;31.6
78731;SHT31;68055;51.978;5.658;2023-04-03T16:05:39;11.9;32.0
78731;SHT31;68055;51.978;5.658;2023-04-03T16:08:10;11.9;32.1
78731;SHT31;68055;51.978;5.658;2023-04-03T16:10:40;11.9;32.1
78731;SHT31;68055;51.978;5.658;2023-04-03T16:13:10;11.9;32.6
78731;SHT31;68055;51.978;5.658;2023-04-03T16:15:40;11.9;32.6
78731;SHT31;68055;51.978;5.658;2023-04-03T16:18:10;11.9;32.5
78731;SHT31;68055;51.978;5.658;2023-04-03T16:20:41;11.8;32.8
78731;SHT31;68055;51.978;5.658;2023-04-03T16:23:12;11.8;32.8
78731;SHT31;68055;51.978;5.658;2023-04-03T16:25:42;11.8;32.7
78731;SHT31;68055;51.978;5.658;2023-04-03T16:28:14;11.8;32.8
78731;SHT31;68055;51.978;5.658;2023-04-03T16:30:46;11.8;32.3
78731;SHT31;68055;51.978;5.658;2023-04-03T16:33:16;11.8;32.9
78731;SHT31;68055;51.978;5.658;2023-04-03T16:35:50;11.8;32.7
78731;SHT31;68055;51.978;5.658;2023-04-03T16:38:20;11.8;32.3
78731;SHT31;68055;51.978;5.658;2023-04-03T16:40:49;11.8;33.2
78731;SHT31;68055;51.978;5.658;2023-04-03T16:43:19;11.8;33.2
78731;SHT31;68055;51.978;5.658;2023-04-03T16:45:49;11.8;32.9
78731;SHT31;68055;51.978;5.658;2023-04-03T16:48:19;11.7;33.5
78731;SHT31;68055;51.978;5.658;2023-04-03T16:50:49;11.7;33.4